Time;durP1;ratioP1;P1;durP2;ratioP2;P2;SDS_P1;SDS_P2;PMS_P1;PMS_P2;Temp;Humidity;BMP_temperature;BMP_pressure;BME280_temperature;BME280_humidity;BME280_pressure;Samples;Min_cycle;Max_cycle;Signal;HPM_P1;HPM_P2
2022/04/15 00:02:20;;;;;;;;;;;12.20;54.50;;;;;;6149765;23;19920;-79
2022/04/15 00:04:47;;;;;;;;;;;12.00;54.50;;;;;;6127068;23;19917;-81
2022/04/15 00:07:14;;;;;;;;;;;11.90;54.50;;;;;;6125239;23;20253;-78
2022/04/15 00:09:41;;;;;;;;;;;11.70;55.10;;;;;;6124694;23;19932;-80
2022/04/15 00:12:10;;;;;;;;;;;11.50;56.90;;;;;;6125406;23;20301;-79
2022/04/15 00:14:37;;;;;;;;;;;11.40;57.50;;;;;;6124491;23;20317;-79
2022/04/15 00:17:04;;;;;;;;;;;11.30;58.40;;;;;;6125601;23;20235;-79
2022/04/15 00:19:31;;;;;;;;;;;11.10;59.40;;;;;;6124791;23;19964;-81
2022/04/15 00:21:57;;;;;;;;;;;11.10;59.60;;;;;;6125455;23;19987;-81
2022/04/15 00:24:25;;;;;;;;;;;10.80;61.30;;;;;;6124178;23;19974;-80
2022/04/15 00:26:53;;;;;;;;;;;10.80;61.20;;;;;;6125937;23;19924;-80
2022/04/15 00:29:20;;;;;;;;;;;10.70;60.50;;;;;;6125805;23;20254;-81
2022/04/15 00:31:47;;;;;;;;;;;10.70;60.30;;;;;;6124629;23;19921;-80
2022/04/15 00:34:13;;;;;;;;;;;10.80;60.10;;;;;;6125232;23;19945;-81
2022/04/15 00:36:40;;;;;;;;;;;10.80;59.40;;;;;;6125357;23;19917;-81
2022/04/15 00:39:07;;;;;;;;;;;10.80;60.50;;;;;;6127306;23;19920;-77
2022/04/15 00:41:33;;;;;;;;;;;10.80;60.50;;;;;;6125699;23;19928;-81
2022/04/15 00:44:00;;;;;;;;;;;10.80;61.00;;;;;;6126373;23;19945;-81
2022/04/15 00:46:27;;;;;;;;;;;10.80;60.90;;;;;;6125722;23;19967;-79
2022/04/15 00:48:54;;;;;;;;;;;10.90;61.20;;;;;;6127964;23;19921;-81
2022/04/15 00:51:27;;;;;;;;;;;10.90;60.60;;;;;;6128013;23;19921;-77
2022/04/15 00:53:54;;;;;;;;;;;11.00;57.80;;;;;;6127055;23;19917;-78
2022/04/15 00:56:22;;;;;;;;;;;11.10;59.00;;;;;;6126530;23;19921;-80
2022/04/15 00:58:50;;;;;;;;;;;10.90;60.50;;;;;;6126314;23;19921;-79
2022/04/15 01:01:16;;;;;;;;;;;10.90;58.70;;;;;;6150152;23;20277;-79
2022/04/15 01:03:43;;;;;;;;;;;11.10;57.40;;;;;;6125242;23;19924;-80
2022/04/15 01:06:14;;;;;;;;;;;11.30;55.10;;;;;;6126342;23;20261;-80
2022/04/15 01:08:41;;;;;;;;;;;11.40;54.50;;;;;;6125234;23;20344;-77
2022/04/15 01:11:10;;;;;;;;;;;11.50;54.80;;;;;;6127358;23;20257;-81
2022/04/15 01:13:38;;;;;;;;;;;11.70;53.50;;;;;;6123670;23;19972;-77
2022/04/15 01:16:06;;;;;;;;;;;12.00;52.10;;;;;;6125476;23;19917;-81
2022/04/15 01:18:33;;;;;;;;;;;12.10;51.50;;;;;;6124499;23;19975;-78
2022/04/15 01:21:00;;;;;;;;;;;12.20;51.80;;;;;;6125701;23;19967;-78
2022/04/15 01:23:27;;;;;;;;;;;12.30;51.30;;;;;;6123602;23;19924;-78
2022/04/15 01:25:54;;;;;;;;;;;12.40;51.30;;;;;;6123667;23;20334;-81
2022/04/15 01:28:21;;;;;;;;;;;12.30;52.10;;;;;;6124955;23;19921;-80
2022/04/15 01:30:48;;;;;;;;;;;12.10;53.30;;;;;;6124307;23;19928;-78
2022/04/15 01:33:15;;;;;;;;;;;12.00;52.30;;;;;;6124349;23;19968;-79
2022/04/15 01:35:47;;;;;;;;;;;12.00;52.50;;;;;;6123190;23;20058;-81
2022/04/15 01:38:17;;;;;;;;;;;12.00;52.50;;;;;;6125568;23;19921;-79
2022/04/15 01:40:44;;;;;;;;;;;12.00;52.30;;;;;;6125003;23;20338;-78
2022/04/15 01:43:11;;;;;;;;;;;11.90;52.90;;;;;;6150196;23;19923;-79
2022/04/15 01:45:38;;;;;;;;;;;11.80;53.50;;;;;;6124065;23;19917;-78
2022/04/15 01:48:05;;;;;;;;;;;12.00;51.10;;;;;;6126704;23;19920;-81
2022/04/15 01:50:32;;;;;;;;;;;12.40;50.20;;;;;;6125292;23;19969;-79
2022/04/15 01:52:59;;;;;;;;;;;12.70;48.60;;;;;;6125764;23;19983;-81
2022/04/15 01:55:26;;;;;;;;;;;13.10;47.90;;;;;;6125291;23;19920;-79
2022/04/15 01:57:53;;;;;;;;;;;13.40;46.80;;;;;;6125785;23;21289;-80
2022/04/15 02:00:20;;;;;;;;;;;13.60;46.70;;;;;;6123827;23;19971;-78
2022/04/15 02:02:47;;;;;;;;;;;13.60;46.90;;;;;;6126252;23;19928;-78
2022/04/15 02:05:14;;;;;;;;;;;13.70;47.70;;;;;;6124318;23;20326;-81
2022/04/15 02:07:40;;;;;;;;;;;13.60;46.90;;;;;;6126612;23;19921;-79
2022/04/15 02:10:09;;;;;;;;;;;13.50;47.50;;;;;;6124384;23;19944;-81
2022/04/15 02:12:36;;;;;;;;;;;13.30;47.80;;;;;;6124092;23;19916;-81
2022/04/15 02:15:04;;;;;;;;;;;13.20;47.30;;;;;;6124402;23;19976;-81
2022/04/15 02:17:30;;;;;;;;;;;13.40;46.80;;;;;;6124710;23;20227;-81
2022/04/15 02:19:57;;;;;;;;;;;13.70;45.80;;;;;;6122936;23;19917;-80
2022/04/15 02:22:24;;;;;;;;;;;14.00;45.30;;;;;;6125770;23;20378;-80
2022/04/15 02:24:51;;;;;;;;;;;14.30;44.50;;;;;;6123360;23;20204;-79
2022/04/15 02:27:17;;;;;;;;;;;14.40;43.90;;;;;;6124234;23;19917;-81
2022/04/15 02:29:44;;;;;;;;;;;14.50;43.50;;;;;;6122826;23;20285;-79
2022/04/15 02:32:11;;;;;;;;;;;14.60;43.30;;;;;;6126114;23;19921;-80
2022/04/15 02:34:38;;;;;;;;;;;14.60;43.60;;;;;;6124416;23;19927;-78
2022/04/15 02:37:05;;;;;;;;;;;14.60;43.60;;;;;;6127537;23;19921;-77
2022/04/15 02:39:32;;;;;;;;;;;14.60;43.90;;;;;;6122880;23;19967;-78
2022/04/15 02:42:00;;;;;;;;;;;14.60;43.40;;;;;;6124959;23;19924;-80
2022/04/15 02:44:28;;;;;;;;;;;14.60;43.10;;;;;;6124576;23;19921;-81
2022/04/15 02:46:57;;;;;;;;;;;14.60;43.40;;;;;;6124947;23;19924;-79
2022/04/15 02:49:27;;;;;;;;;;;14.60;43.40;;;;;;6147407;23;19920;-81
2022/04/15 02:51:55;;;;;;;;;;;14.60;43.30;;;;;;6125347;23;19917;-79
2022/04/15 02:54:25;;;;;;;;;;;14.70;42.60;;;;;;6123580;23;19916;-80
2022/04/15 02:56:51;;;;;;;;;;;14.80;42.90;;;;;;6124167;23;19916;-78
2022/04/15 02:59:20;;;;;;;;;;;14.80;42.80;;;;;;6124411;23;20405;-81
2022/04/15 03:01:49;;;;;;;;;;;14.80;42.40;;;;;;6124080;23;19941;-78
2022/04/15 03:04:16;;;;;;;;;;;14.80;42.90;;;;;;6124593;23;20013;-78
2022/04/15 03:06:43;;;;;;;;;;;14.80;42.80;;;;;;6124856;23;19925;-79
2022/04/15 03:09:10;;;;;;;;;;;14.80;42.60;;;;;;6125170;23;19920;-80
2022/04/15 03:11:38;;;;;;;;;;;14.80;42.80;;;;;;6123179;23;19968;-79
2022/04/15 03:14:05;;;;;;;;;;;14.50;45.00;;;;;;6127369;23;19917;-79
2022/04/15 03:16:33;;;;;;;;;;;14.20;45.40;;;;;;6123365;23;19921;-81
2022/04/15 03:19:00;;;;;;;;;;;14.00;46.20;;;;;;6122263;23;20444;-78
2022/04/15 03:21:26;;;;;;;;;;;13.70;46.80;;;;;;6126103;23;19928;-79
2022/04/15 03:23:53;;;;;;;;;;;13.50;47.20;;;;;;6123485;23;19921;-78
2022/04/15 03:26:21;;;;;;;;;;;13.30;47.80;;;;;;6124764;23;20346;-81
2022/04/15 03:28:48;;;;;;;;;;;13.20;47.40;;;;;;6124039;23;19920;-81
2022/04/15 03:31:15;;;;;;;;;;;13.20;47.50;;;;;;6123817;23;19968;-77
2022/04/15 03:33:42;;;;;;;;;;;12.90;48.50;;;;;;6124072;23;19917;-78
2022/04/15 03:36:09;;;;;;;;;;;12.70;49.30;;;;;;6123233;23;19917;-81
2022/04/15 03:38:35;;;;;;;;;;;12.70;48.80;;;;;;6127216;23;19921;-81
2022/04/15 03:41:02;;;;;;;;;;;12.70;49.30;;;;;;6125851;23;19928;-79
2022/04/15 03:43:29;;;;;;;;;;;12.80;48.10;;;;;;6126283;23;19916;-81
2022/04/15 03:45:56;;;;;;;;;;;13.00;47.50;;;;;;6125484;23;19968;-78
2022/04/15 03:48:23;;;;;;;;;;;13.10;47.60;;;;;;6126989;23;19983;-79
2022/04/15 03:50:50;;;;;;;;;;;13.30;47.30;;;;;;6125329;23;19916;-80
2022/04/15 03:53:16;;;;;;;;;;;13.40;46.90;;;;;;6125937;23;19983;-80
2022/04/15 03:55:43;;;;;;;;;;;13.40;46.80;;;;;;6127295;23;19941;-80
2022/04/15 03:58:13;;;;;;;;;;;13.50;47.50;;;;;;6125450;23;19945;-81
2022/04/15 04:00:40;;;;;;;;;;;13.40;46.80;;;;;;6127926;23;19940;-78
2022/04/15 04:03:06;;;;;;;;;;;13.70;45.90;;;;;;6125600;23;19916;-78
2022/04/15 04:05:34;;;;;;;;;;;13.80;45.80;;;;;;6125994;23;19921;-79
2022/04/15 04:08:02;;;;;;;;;;;13.80;45.60;;;;;;6125732;23;19917;-81
2022/04/15 04:10:29;;;;;;;;;;;13.80;45.80;;;;;;6128432;23;20397;-79
2022/04/15 04:12:55;;;;;;;;;;;13.50;46.90;;;;;;6125362;23;19944;-81
2022/04/15 04:15:22;;;;;;;;;;;13.30;47.60;;;;;;6124546;23;20070;-81
2022/04/15 04:17:49;;;;;;;;;;;13.20;47.80;;;;;;6124421;23;19916;-81
2022/04/15 04:20:17;;;;;;;;;;;13.10;47.90;;;;;;6124527;23;19987;-79
2022/04/15 04:22:43;;;;;;;;;;;13.00;48.70;;;;;;6126734;23;19925;-81
2022/04/15 04:25:10;;;;;;;;;;;12.80;49.00;;;;;;6125911;23;19990;-81
2022/04/15 04:27:42;;;;;;;;;;;12.70;50.10;;;;;;6126478;23;19920;-80
2022/04/15 04:30:10;;;;;;;;;;;12.50;49.80;;;;;;6124759;23;19920;-81
2022/04/15 04:32:36;;;;;;;;;;;12.40;49.80;;;;;;6124947;23;19944;-80
2022/04/15 04:35:03;;;;;;;;;;;12.30;51.20;;;;;;6124903;23;20223;-81
2022/04/15 04:37:30;;;;;;;;;;;11.90;52.70;;;;;;6127549;23;19971;-79
2022/04/15 04:39:57;;;;;;;;;;;11.60;54.70;;;;;;6126148;23;19945;-79
2022/04/15 04:42:25;;;;;;;;;;;11.30;55.00;;;;;;6124239;23;19956;-81
2022/04/15 04:44:52;;;;;;;;;;;11.20;54.80;;;;;;6125186;23;19924;-81
2022/04/15 04:47:19;;;;;;;;;;;11.20;54.80;;;;;;6125656;23;19916;-81
2022/04/15 04:49:46;;;;;;;;;;;11.20;54.80;;;;;;6124201;23;19968;-81
2022/04/15 04:52:13;;;;;;;;;;;11.10;55.70;;;;;;6126399;23;20227;-81
2022/04/15 04:54:40;;;;;;;;;;;10.90;56.40;;;;;;6127546;23;19928;-81
2022/04/15 04:57:06;;;;;;;;;;;11.00;56.20;;;;;;6126374;23;19917;-81
2022/04/15 04:59:36;;;;;;;;;;;10.80;57.20;;;;;;6129711;23;19916;-79
2022/04/15 05:02:03;;;;;;;;;;;10.70;58.20;;;;;;6122605;23;20294;-79
2022/04/15 05:04:29;;;;;;;;;;;10.50;59.30;;;;;;6129877;23;20433;-79
2022/04/15 05:06:56;;;;;;;;;;;10.50;59.30;;;;;;6127672;23;19924;-79
2022/04/15 05:09:23;;;;;;;;;;;10.50;58.70;;;;;;6137025;23;19920;-79
2022/04/15 05:11:52;;;;;;;;;;;10.70;57.60;;;;;;6129851;23;20325;-79
2022/04/15 05:14:21;;;;;;;;;;;10.90;56.90;;;;;;6134004;23;20318;-80
2022/04/15 05:16:47;;;;;;;;;;;11.10;56.10;;;;;;6123613;23;19917;-81
2022/04/15 05:19:14;;;;;;;;;;;11.20;55.20;;;;;;6140774;23;19952;-78
2022/04/15 05:21:41;;;;;;;;;;;11.30;55.20;;;;;;6123325;23;20330;-79
2022/04/15 05:24:08;;;;;;;;;;;11.50;54.40;;;;;;6123206;23;19917;-79
2022/04/15 05:26:36;;;;;;;;;;;11.80;54.40;;;;;;6128502;23;19920;-81
2022/04/15 05:29:03;;;;;;;;;;;11.70;54.60;;;;;;6124492;23;19971;-79
2022/04/15 05:31:30;;;;;;;;;;;11.50;55.60;;;;;;6128109;23;19921;-81
2022/04/15 05:33:57;;;;;;;;;;;11.60;55.00;;;;;;6133783;23;19917;-78
2022/04/15 05:36:23;;;;;;;;;;;11.60;54.50;;;;;;6123317;23;19972;-80
2022/04/15 05:38:50;;;;;;;;;;;11.80;53.90;;;;;;6123505;23;19921;-79
2022/04/15 05:41:17;;;;;;;;;;;11.90;53.50;;;;;;6125866;23;19940;-81
2022/04/15 05:43:44;;;;;;;;;;;12.10;52.90;;;;;;6129775;23;19921;-79
2022/04/15 05:46:10;;;;;;;;;;;12.20;53.20;;;;;;6128533;23;19928;-80
2022/04/15 05:48:37;;;;;;;;;;;12.10;53.70;;;;;;6124486;23;19967;-81
2022/04/15 05:51:04;;;;;;;;;;;12.10;54.30;;;;;;6124503;23;19917;-79
2022/04/15 05:53:31;;;;;;;;;;;12.00;54.60;;;;;;6124863;23;19916;-81
2022/04/15 05:55:58;;;;;;;;;;;12.10;54.00;;;;;;6125337;23;19928;-81
2022/04/15 05:58:25;;;;;;;;;;;12.30;53.00;;;;;;6128019;23;19924;-81
2022/04/15 06:00:53;;;;;;;;;;;12.60;51.70;;;;;;6124204;23;19916;-81
2022/04/15 06:03:20;;;;;;;;;;;12.90;51.70;;;;;;6130449;23;19917;-78
2022/04/15 06:05:47;;;;;;;;;;;13.10;51.00;;;;;;6131921;23;19921;-79
2022/04/15 06:08:14;;;;;;;;;;;13.20;51.30;;;;;;6130336;23;19987;-81
2022/04/15 06:10:41;;;;;;;;;;;13.40;49.50;;;;;;6123846;23;19917;-81
2022/04/15 06:13:19;;;;;;;;;;;13.70;48.60;;;;;;6122633;23;20298;-79
2022/04/15 06:15:57;;;;;;;;;;;13.80;49.30;;;;;;6126754;23;19928;-81
2022/04/15 06:18:34;;;;;;;;;;;13.90;49.60;;;;;;6130458;23;19917;-79
2022/04/15 06:21:02;;;;;;;;;;;13.80;51.30;;;;;;6125360;23;19916;-82
2022/04/15 06:23:29;;;;;;;;;;;13.70;51.20;;;;;;6123605;23;19917;-81
2022/04/15 06:25:56;;;;;;;;;;;13.60;50.60;;;;;;6135855;23;19929;-79
2022/04/15 06:28:22;;;;;;;;;;;13.60;51.70;;;;;;6127887;23;19916;-81
2022/04/15 06:30:50;;;;;;;;;;;13.60;51.80;;;;;;6127609;23;19967;-78
2022/04/15 06:33:19;;;;;;;;;;;13.60;53.20;;;;;;6122600;23;19917;-79
2022/04/15 06:35:47;;;;;;;;;;;13.70;54.50;;;;;;6123471;23;19921;-78
2022/04/15 06:38:14;;;;;;;;;;;13.70;53.20;;;;;;6124871;23;19940;-79
2022/04/15 06:40:41;;;;;;;;;;;13.90;52.30;;;;;;6121970;23;19940;-79
2022/04/15 06:43:08;;;;;;;;;;;14.20;48.40;;;;;;6129163;23;19992;-80
2022/04/15 06:45:35;;;;;;;;;;;14.40;48.20;;;;;;6126115;23;19921;-79
2022/04/15 06:48:02;;;;;;;;;;;14.40;52.00;;;;;;6122625;23;19956;-80
2022/04/15 06:50:31;;;;;;;;;;;14.30;55.70;;;;;;6126765;23;19916;-81
2022/04/15 06:53:00;;;;;;;;;;;14.20;56.30;;;;;;6121506;23;19917;-81
2022/04/15 06:55:27;;;;;;;;;;;14.10;55.80;;;;;;6125622;23;19921;-82
2022/04/15 06:57:54;;;;;;;;;;;14.20;56.20;;;;;;6127907;23;19924;-80
2022/04/15 07:00:22;;;;;;;;;;;14.40;55.30;;;;;;6125762;23;19939;-80
2022/04/15 07:02:49;;;;;;;;;;;14.60;54.00;;;;;;6125598;23;20261;-81
2022/04/15 07:05:17;;;;;;;;;;;14.70;53.00;;;;;;6128486;23;19939;-81
2022/04/15 07:07:45;;;;;;;;;;;14.90;58.30;;;;;;6125822;23;19924;-81
2022/04/15 07:10:12;;;;;;;;;;;14.90;57.20;;;;;;6123546;23;19976;-81
2022/04/15 07:12:39;;;;;;;;;;;14.90;59.50;;;;;;6126334;23;19972;-82
2022/04/15 07:15:07;;;;;;;;;;;15.10;57.80;;;;;;6125202;23;19927;-79
2022/04/15 07:17:34;;;;;;;;;;;15.20;56.30;;;;;;6126404;23;19924;-82
2022/04/15 07:20:01;;;;;;;;;;;15.30;55.60;;;;;;6126726;23;19992;-82
2022/04/15 07:22:27;;;;;;;;;;;15.60;52.90;;;;;;6124349;23;19972;-80
2022/04/15 07:24:55;;;;;;;;;;;15.90;51.80;;;;;;6128930;23;19967;-80
2022/04/15 07:27:22;;;;;;;;;;;15.90;54.20;;;;;;6125744;23;19917;-82
2022/04/15 07:29:48;;;;;;;;;;;15.90;54.60;;;;;;6126676;23;19921;-80
2022/04/15 07:32:21;;;;;;;;;;;16.10;53.80;;;;;;6125545;23;19921;-80
2022/04/15 07:34:48;;;;;;;;;;;16.10;53.10;;;;;;6127302;23;20245;-82
2022/04/15 07:37:16;;;;;;;;;;;16.20;53.70;;;;;;6126123;23;19948;-82
2022/04/15 07:39:43;;;;;;;;;;;16.40;52.50;;;;;;6126767;23;19924;-82
2022/04/15 07:42:11;;;;;;;;;;;16.80;50.80;;;;;;6124595;23;19940;-80
2022/04/15 07:44:39;;;;;;;;;;;17.00;49.50;;;;;;6124907;23;20397;-82
2022/04/15 07:47:07;;;;;;;;;;;17.30;48.60;;;;;;6125770;23;20406;-79
2022/04/15 07:49:34;;;;;;;;;;;17.50;45.80;;;;;;6130361;23;19921;-80
2022/04/15 07:52:04;;;;;;;;;;;17.70;44.40;;;;;;6125588;23;19983;-80
2022/04/15 07:54:32;;;;;;;;;;;17.90;43.10;;;;;;6126776;23;19972;-82
2022/04/15 07:56:59;;;;;;;;;;;18.10;42.30;;;;;;6125561;23;20397;-82
2022/04/15 07:59:26;;;;;;;;;;;18.20;41.00;;;;;;6125427;23;19964;-83
2022/04/15 08:01:53;;;;;;;19.58;9.23;;;18.50;39.40;;;;;;6124513;23;20334;-80
2022/04/15 08:04:21;;;;;;;18.60;9.93;;;18.50;38.50;;;;;;6123738;23;20355;-80
2022/04/15 08:06:48;;;;;;;17.60;8.48;;;18.70;39.00;;;;;;6124775;23;20093;-80
2022/04/15 08:09:19;;;;;;;16.05;9.02;;;18.80;38.70;;;;;;6124529;23;20101;-82
2022/04/15 08:11:46;;;;;;;;;;;18.90;38.90;;;;;;6125896;23;20084;-82
2022/04/15 08:14:14;;;;;;;;;;;18.80;37.20;;;;;;6122404;23;19917;-81
2022/04/15 08:16:41;;;;;;;;;;;18.80;37.40;;;;;;6121530;23;20314;-80
2022/04/15 08:19:08;;;;;;;;;;;18.90;39.00;;;;;;6128691;23;19924;-80
2022/04/15 08:21:35;;;;;;;;;;;18.90;36.90;;;;;;6125752;23;19925;-80
2022/04/15 08:24:02;;;;;;;;;;;18.50;37.40;;;;;;6124575;23;19917;-82
2022/04/15 08:26:29;;;;;;;;;;;18.70;39.20;;;;;;6130405;23;20282;-82
2022/04/15 08:28:56;;;;;;;;;;;19.00;38.50;;;;;;6124662;23;19925;-82
2022/04/15 08:31:23;;;;;;;;;;;19.00;37.80;;;;;;6127390;23;19916;-80
2022/04/15 08:33:50;;;;;;;;;;;19.30;37.90;;;;;;6126323;23;19916;-82
2022/04/15 08:36:17;;;;;;;;;;;19.40;36.80;;;;;;6124024;23;19920;-82
2022/04/15 08:38:45;;;;;;;;;;;19.30;36.00;;;;;;6125721;23;19984;-79
2022/04/15 08:41:12;;;;;;;;;;;19.50;38.50;;;;;;6126124;23;19917;-82
2022/04/15 08:43:41;;;;;;;19.40;10.30;;;19.60;37.40;;;;;;6123596;23;19933;-79
2022/04/15 08:46:12;;;;;;;25.17;11.63;;;19.90;36.80;;;;;;6117703;23;20022;-80
2022/04/15 08:48:40;;;;;;;;;;;19.90;37.00;;;;;;6128015;23;20034;-82
2022/04/15 08:51:07;;;;;;;;;;;19.90;35.20;;;;;;6126358;23;19920;-83
2022/04/15 08:53:37;;;;;;;;;;;19.80;37.10;;;;;;6125282;23;19932;-79
2022/04/15 08:56:05;;;;;;;;;;;19.90;37.10;;;;;;6129098;23;19916;-82
2022/04/15 08:58:31;;;;;;;;;;;20.10;37.10;;;;;;6126974;23;19920;-80
2022/04/15 09:00:59;;;;;;;;;;;20.20;36.80;;;;;;6124521;23;20249;-82
2022/04/15 09:03:26;;;;;;;;;;;20.40;37.30;;;;;;6129721;23;19916;-79
2022/04/15 09:05:53;;;;;;;;;;;20.40;37.80;;;;;;6128273;23;20356;-79
2022/04/15 09:08:21;;;;;;;;;;;20.40;36.80;;;;;;6124652;23;19917;-80
2022/04/15 09:10:59;;;;;;;;;;;20.50;36.70;;;;;;6125414;23;19967;-82
2022/04/15 09:13:34;;;;;;;;;;;20.70;38.20;;;;;;6125795;23;19968;-79
2022/04/15 09:16:01;;;;;;;;;;;20.70;36.50;;;;;;6126353;23;19933;-82
2022/04/15 09:18:28;;;;;;;;;;;20.80;36.70;;;;;;6127460;23;20261;-79
2022/04/15 09:21:14;;;;;;;;;;;20.90;36.70;;;;;;6126521;23;19921;-82
2022/04/15 09:23:41;;;;;;;;;;;21.00;36.10;;;;;;6123215;23;19972;-82
2022/04/15 09:26:08;;;;;;;;;;;21.10;35.50;;;;;;6126009;23;19917;-82
2022/04/15 09:28:35;;;;;;;;;;;21.20;35.30;;;;;;6125687;23;19921;-80
2022/04/15 09:31:02;;;;;;;;;;;21.30;35.40;;;;;;6126459;23;19917;-80
2022/04/15 09:33:29;;;;;;;;;;;20.90;34.10;;;;;;6124320;23;20219;-80
2022/04/15 09:35:56;;;;;;;;;;;21.00;35.10;;;;;;6125779;23;19916;-80
2022/04/15 09:38:49;;;;;;;;;;;21.20;33.50;;;;;;6126989;23;19917;-79
2022/04/15 09:41:20;;;;;;;;;;;21.40;34.60;;;;;;6127181;23;20381;-79
2022/04/15 09:43:55;;;;;;;;;;;21.60;32.50;;;;;;6109912;23;19940;-82
2022/04/15 09:46:21;;;;;;;;;;;21.60;34.30;;;;;;6124220;23;19917;-82
2022/04/15 09:49:01;;;;;;;;;;;21.80;33.40;;;;;;6126304;23;19928;-82
2022/04/15 09:51:37;;;;;;;;;;;21.90;33.50;;;;;;6124597;23;19924;-82
2022/04/15 09:54:04;;;;;;;;;;;22.20;33.40;;;;;;6127939;23;20330;-82
2022/04/15 09:56:35;;;;;;;;;;;22.20;32.60;;;;;;6126093;23;19940;-80
2022/04/15 09:59:04;;;;;;;;;;;22.00;31.50;;;;;;6132095;23;19920;-82
2022/04/15 10:01:32;;;;;;;;;;;22.30;31.10;;;;;;6122627;23;19920;-80
2022/04/15 10:04:00;;;;;;;;;;;22.10;31.60;;;;;;6125609;23;19944;-79
2022/04/15 10:06:29;;;;;;;;;;;21.90;31.70;;;;;;6129870;23;19944;-80
2022/04/15 10:09:03;;;;;;;;;;;22.20;33.50;;;;;;6134651;23;19924;-80
2022/04/15 10:11:35;;;;;;;;;;;22.30;31.80;;;;;;6130293;23;19920;-82
2022/04/15 10:14:06;;;;;;;;;;;22.20;32.50;;;;;;6123694;23;19924;-80
2022/04/15 10:16:34;;;;;;;;;;;22.20;33.30;;;;;;6132252;23;19940;-79
2022/04/15 10:19:04;;;;;;;;;;;22.30;31.40;;;;;;6127754;23;19921;-80
2022/04/15 10:21:32;;;;;;;;;;;22.60;33.60;;;;;;6124677;23;19972;-82
2022/04/15 10:24:01;;;;;;;;;;;22.80;31.90;;;;;;6128926;23;19979;-82
2022/04/15 10:26:32;;;;;;;;;;;23.00;30.00;;;;;;6126483;23;19925;-82
2022/04/15 10:29:00;;;;;;;;;;;22.70;30.00;;;;;;6127325;23;19917;-82
2022/04/15 10:31:35;;;;;;;;;;;22.30;30.40;;;;;;6129288;23;19995;-80
2022/04/15 10:34:09;;;;;;;;;;;22.60;32.00;;;;;;6131176;23;19917;-80
2022/04/15 10:36:36;;;;;;;;;;;22.90;31.60;;;;;;6127236;23;19968;-82
2022/04/15 10:39:03;;;;;;;;;;;23.20;31.00;;;;;;6123930;23;20883;-81
2022/04/15 10:41:51;;;;;;;;;;;23.10;32.40;;;;;;6124409;23;19941;-82
2022/04/15 10:44:24;;;;;;;;;;;23.10;31.00;;;;;;6152778;23;19921;-80
2022/04/15 10:46:57;;;;;;;;;;;23.10;31.30;;;;;;6128532;23;19917;-81
2022/04/15 10:49:26;;;;;;;;;;;23.30;30.40;;;;;;6135345;23;19921;-83
2022/04/15 10:52:01;;;;;;;;;;;22.80;30.90;;;;;;6127171;23;19917;-80
2022/04/15 10:54:45;;;;;;;;;;;22.80;32.90;;;;;;6133842;23;19920;-82
2022/04/15 10:57:17;;;;;;;;;;;23.30;34.10;;;;;;6159989;23;19959;-79
2022/04/15 11:02:36;;;;;;;;;;;23.20;32.90;;;;;;6143940;23;19917;-83
2022/04/15 11:05:05;;;;;;;;;;;23.70;30.80;;;;;;6126922;23;19917;-80
2022/04/15 11:07:43;;;;;;;;;;;23.90;30.50;;;;;;6125175;23;19924;-83
2022/04/15 11:10:17;;;;;;;;;;;24.20;31.20;;;;;;6124740;23;19917;-83
2022/04/15 11:12:44;;;;;;;;;;;24.30;31.50;;;;;;6129165;23;19920;-78
2022/04/15 11:15:12;;;;;;;;;;;24.30;29.90;;;;;;6124021;23;19917;-83
2022/04/15 11:17:39;;;;;;;;;;;24.20;29.30;;;;;;6125884;23;19916;-82
2022/04/15 11:20:07;;;;;;;;;;;24.20;29.80;;;;;;6126108;23;19917;-83
2022/04/15 11:22:40;;;;;;;;;;;24.60;30.80;;;;;;6125436;23;19917;-82
2022/04/15 11:25:09;;;;;;;;;;;24.90;31.80;;;;;;6125700;23;19927;-79
2022/04/15 11:27:39;;;;;;;;;;;24.30;29.80;;;;;;6127237;23;19921;-80
2022/04/15 11:30:12;;;;;;;;;;;24.40;31.10;;;;;;6126169;23;20311;-82
2022/04/15 11:32:49;;;;;;;;;;;25.00;31.30;;;;;;6130722;23;19949;-80
2022/04/15 11:35:28;;;;;;;;;;;25.10;28.70;;;;;;6128242;23;19940;-79
2022/04/15 11:37:56;;;;;;;;;;;25.10;29.00;;;;;;6128748;23;19927;-79
2022/04/15 11:40:24;;;;;;;;;;;24.40;29.60;;;;;;6127448;23;20385;-82
2022/04/15 11:42:55;;;;;;;;;;;24.50;29.80;;;;;;6127196;23;19921;-81
2022/04/15 11:45:41;;;;;;;;;;;24.80;30.10;;;;;;6129653;23;19917;-79
2022/04/15 11:48:17;;;;;;;;;;;25.10;30.00;;;;;;6125717;23;19991;-79
2022/04/15 11:50:44;;;;;;;;;;;25.30;30.00;;;;;;6124525;23;20661;-82
2022/04/15 11:53:12;;;;;;;;;;;25.40;29.60;;;;;;6127517;23;19927;-79
2022/04/15 11:55:52;;;;;;;;;;;25.20;28.70;;;;;;6125450;23;19971;-82
2022/04/15 11:58:21;;;;;;;;;;;25.40;28.80;;;;;;6124341;23;20390;-80
2022/04/15 12:00:51;;;;;;;;;;;25.60;29.50;;;;;;6147103;23;19983;-84
2022/04/15 12:03:18;;;;;;;;;;;25.50;28.60;;;;;;6125737;23;19941;-79
2022/04/15 12:05:45;;;;;;;16.83;10.07;;;25.40;28.50;;;;;;6124064;23;19924;-79
2022/04/15 12:08:12;;;;;;;17.67;9.32;;;25.60;28.90;;;;;;6124450;23;20089;-79
2022/04/15 12:10:40;;;;;;;15.15;10.25;;;25.50;28.90;;;;;;6125014;23;20384;-79
2022/04/15 12:13:07;;;;;;;18.27;10.23;;;25.90;27.70;;;;;;6123739;23;20376;-80
2022/04/15 12:15:35;;;;;;;19.13;10.70;;;26.00;28.40;;;;;;6121809;23;20380;-83
2022/04/15 12:18:04;;;;;;;14.65;8.93;;;26.10;28.10;;;;;;6122806;23;20446;-83
2022/04/15 12:20:33;;;;;;;17.27;9.15;;;26.30;28.20;;;;;;6122721;23;20376;-82
2022/04/15 12:23:00;;;;;;;14.27;9.35;;;26.40;27.60;;;;;;6123599;23;20396;-82
2022/04/15 12:29:47;;;;;;;14.52;9.32;;;26.60;27.70;;;;;;6124113;23;20434;-83
2022/04/15 12:31:00;;;;;;;14.35;9.30;;;26.80;28.30;;;;;;6124464;23;20955;-79
2022/04/15 12:33:27;;;;;;;;;;;26.60;28.10;;;;;;6123665;23;20018;-84
2022/04/15 12:36:01;;;;;;;;;;;26.40;27.10;;;;;;6121410;23;19917;-83
2022/04/15 12:38:29;;;;;;;;;;;25.90;28.10;;;;;;6119625;23;19963;-80
2022/04/15 12:41:02;;;;;;;;;;;25.90;31.30;;;;;;6126448;23;19921;-82
2022/04/15 12:43:31;;;;;;;;;;;26.50;28.50;;;;;;6125823;23;19916;-82
2022/04/15 12:45:58;;;;;;;;;;;26.60;26.70;;;;;;6124444;23;19923;-82
2022/04/15 12:48:25;;;;;;;;;;;26.60;27.90;;;;;;6126544;23;19921;-79
2022/04/15 12:50:53;;;;;;;;;;;26.80;27.70;;;;;;6124821;23;19917;-83
2022/04/15 12:53:22;;;;;;;16.20;7.55;;;26.40;26.70;;;;;;6127785;23;19983;-78
2022/04/15 12:55:50;;;;;;;13.38;8.15;;;26.10;27.80;;;;;;6132059;23;20030;-79
2022/04/15 12:58:29;;;;;;;17.75;7.95;;;26.60;28.00;;;;;;6124551;23;20028;-84
2022/04/15 13:00:58;;;;;;;12.25;7.13;;;27.10;27.60;;;;;;6122719;23;20022;-79
2022/04/15 13:03:35;;;;;;;11.57;6.80;;;27.30;27.80;;;;;;6124574;23;20022;-81
2022/04/15 13:06:02;;;;;;;14.25;7.07;;;26.60;27.10;;;;;;6124176;23;20411;-83
2022/04/15 13:08:29;;;;;;;9.82;6.65;;;27.00;26.40;;;;;;6124850;23;20073;-84
2022/04/15 13:10:56;;;;;;;13.32;6.90;;;27.40;28.00;;;;;;6127741;23;20022;-80
2022/04/15 13:13:34;;;;;;;12.93;7.65;;;27.60;27.20;;;;;;6128637;23;20029;-81
2022/04/15 13:16:01;;;;;;;17.88;6.25;;;27.80;26.40;;;;;;6124899;23;20344;-80
2022/04/15 13:18:28;;;;;;;12.32;6.25;;;27.90;26.50;;;;;;6125017;23;20029;-79
2022/04/15 13:20:56;;;;;;;15.10;7.10;;;27.30;26.90;;;;;;6131200;23;20052;-83
2022/04/15 13:23:22;;;;;;;11.82;7.13;;;27.60;25.70;;;;;;6123384;23;20022;-80
2022/04/15 13:25:49;;;;;;;10.43;5.78;;;27.90;25.10;;;;;;6126396;23;20477;-80
2022/04/15 13:28:16;;;;;;;8.43;5.07;;;27.90;25.40;;;;;;6130875;23;20080;-83
2022/04/15 13:30:45;;;;;;;12.27;5.55;;;28.30;25.10;;;;;;6128392;23;20061;-83
2022/04/15 13:33:12;;;;;;;14.55;6.95;;;28.50;25.40;;;;;;6134303;23;20383;-79
2022/04/15 13:35:39;;;;;;;10.77;6.50;;;28.00;24.60;;;;;;6124199;23;20383;-82
2022/04/15 13:38:06;;;;;;;11.82;5.28;;;27.30;26.20;;;;;;6127839;23;20030;-80
2022/04/15 13:40:35;;;;;;;11.10;6.05;;;27.70;25.70;;;;;;6125042;23;20073;-80
2022/04/15 13:43:02;;;;;;;12.43;6.45;;;27.70;25.60;;;;;;6124278;23;20033;-83
2022/04/15 13:45:29;;;;;;;9.82;5.38;;;27.80;25.90;;;;;;6124829;23;20022;-79
2022/04/15 13:47:56;;;;;;;8.75;4.95;;;27.40;25.70;;;;;;6123865;23;20028;-82
2022/04/15 13:50:23;;;;;;;7.93;4.13;;;27.40;25.60;;;;;;6123937;23;20025;-79
2022/04/15 13:58:28;;;;;;;9.52;4.55;;;27.60;25.00;;;;;;6124884;23;20026;-83
2022/04/15 14:00:55;;;;;;;8.13;4.60;;;27.40;26.40;;;;;;6122363;23;20026;-81
2022/04/15 14:03:22;;;;;;;6.97;3.78;;;27.50;26.40;;;;;;6123814;23;20073;-81
2022/04/15 14:05:49;;;;;;;9.35;5.05;;;27.80;26.50;;;;;;6122635;23;20034;-79
2022/04/15 14:08:16;;;;;;;8.25;4.68;;;27.90;24.50;;;;;;6125422;23;20022;-79
2022/04/15 14:10:43;;;;;;;7.55;4.18;;;27.60;25.20;;;;;;6122485;23;20080;-83
2022/04/15 14:13:12;;;;;;;7.28;4.00;;;27.20;25.50;;;;;;6123171;23;20428;-81
2022/04/15 14:15:39;;;;;;;13.15;4.18;;;27.20;25.60;;;;;;6123256;23;20032;-81
2022/04/15 14:18:08;;;;;;;5.88;3.55;;;27.70;25.30;;;;;;6123672;23;20478;-79
2022/04/15 14:20:35;;;;;;;5.85;3.55;;;28.10;25.10;;;;;;6125833;23;20026;-79